createdAt,value
2023-05-17T00:01:18.122Z,7.39
2023-05-17T00:03:46.029Z,7.38
2023-05-17T00:06:14.261Z,7.25
2023-05-17T00:08:42.257Z,7.14
2023-05-17T00:11:10.573Z,6.99
2023-05-17T00:13:41.063Z,6.98
2023-05-17T00:16:09.950Z,6.93
2023-05-17T00:18:37.926Z,6.90
2023-05-17T00:21:06.659Z,6.79
2023-05-17T00:23:34.673Z,6.73
2023-05-17T00:26:02.582Z,6.72
2023-05-17T00:28:30.627Z,6.61
2023-05-17T00:31:00.468Z,6.52
2023-05-17T00:33:28.184Z,6.61
2023-05-17T00:35:56.218Z,6.56
2023-05-17T00:38:23.978Z,6.68
2023-05-17T00:40:54.311Z,6.72
2023-05-17T00:43:22.108Z,6.66
2023-05-17T00:45:50.701Z,6.57
2023-05-17T00:48:21.110Z,6.51
2023-05-17T00:50:49.693Z,6.42
2023-05-17T00:53:18.560Z,6.40
2023-05-17T00:55:47.362Z,6.31
2023-05-17T00:58:15.969Z,6.23
2023-05-17T01:00:44.285Z,6.13
2023-05-17T01:03:13.346Z,6.16
2023-05-17T01:05:43.193Z,6.16
2023-05-17T01:08:11.200Z,6.14
2023-05-17T01:10:46.557Z,5.98
2023-05-17T01:13:20.928Z,5.99
2023-05-17T01:15:59.019Z,5.92
2023-05-17T01:18:35.748Z,5.81
2023-05-17T01:21:16.750Z,5.77
2023-05-17T01:23:54.615Z,5.68
2023-05-17T01:26:38.266Z,5.70
2023-05-17T01:29:06.839Z,5.64
2023-05-17T01:31:35.993Z,5.52
2023-05-17T01:34:08.235Z,5.56
2023-05-17T01:36:37.153Z,5.63
2023-05-17T01:39:05.130Z,5.51
2023-05-17T01:41:40.610Z,5.50
2023-05-17T01:44:19.617Z,5.52
2023-05-17T01:46:52.264Z,5.50
2023-05-17T01:49:25.917Z,5.48
2023-05-17T01:51:59.096Z,5.42
2023-05-17T01:54:33.551Z,5.33
2023-05-17T01:57:06.979Z,5.35
2023-05-17T01:59:39.283Z,5.35
2023-05-17T02:02:08.857Z,5.33
2023-05-17T02:04:37.858Z,5.22
2023-05-17T02:07:05.988Z,5.14
2023-05-17T02:09:34.261Z,5.10
2023-05-17T02:12:03.858Z,5.10
2023-05-17T02:14:31.958Z,5.15
2023-05-17T02:16:59.661Z,5.15
2023-05-17T02:19:27.966Z,5.16
2023-05-17T02:21:55.668Z,5.09
2023-05-17T02:24:23.642Z,5.14
2023-05-17T02:26:51.379Z,5.21
2023-05-17T02:29:20.690Z,5.12
2023-05-17T02:31:48.451Z,5.02
2023-05-17T02:34:17.960Z,4.92
2023-05-17T02:36:45.977Z,4.90
2023-05-17T02:39:14.170Z,5.00
2023-05-17T02:41:41.863Z,5.05
2023-05-17T02:44:09.524Z,5.08
2023-05-17T02:46:39.667Z,5.15
2023-05-17T02:49:07.339Z,5.05
2023-05-17T02:51:35.347Z,5.14
2023-05-17T02:54:03.051Z,5.12
2023-05-17T02:56:31.227Z,5.13
2023-05-17T02:59:01.200Z,5.08
2023-05-17T03:01:29.573Z,5.15
2023-05-17T03:03:58.877Z,5.05
2023-05-17T03:06:27.450Z,5.04
2023-05-17T03:08:55.312Z,5.16
2023-05-17T03:11:23.220Z,5.20
2023-05-17T03:13:52.147Z,5.18
2023-05-17T03:16:23.772Z,5.23
2023-05-17T03:18:53.125Z,5.23
2023-05-17T03:21:22.863Z,5.25
2023-05-17T03:23:51.532Z,5.33
2023-05-17T03:26:20.630Z,5.30
2023-05-17T03:28:52.286Z,5.13
2023-05-17T03:31:20.900Z,5.03
2023-05-17T03:33:48.769Z,5.09
2023-05-17T03:36:16.808Z,5.07
2023-05-17T03:38:46.127Z,5.08
2023-05-17T03:41:14.518Z,5.06
2023-05-17T03:43:42.834Z,5.08
2023-05-17T03:46:14.663Z,4.98
2023-05-17T03:48:42.488Z,5.03
2023-05-17T03:51:12.499Z,4.98
2023-05-17T03:53:43.240Z,5.02
2023-05-17T03:56:13.187Z,5.03
2023-05-17T03:58:42.571Z,4.98
2023-05-17T04:01:11.952Z,4.95
2023-05-17T04:03:40.223Z,4.98
2023-05-17T04:06:08.312Z,5.06
2023-05-17T04:08:38.144Z,5.08
2023-05-17T04:11:10.488Z,5.07
2023-05-17T04:13:40.802Z,5.30
2023-05-17T04:16:09.421Z,5.10
2023-05-17T04:18:40.254Z,5.15
2023-05-17T04:21:08.063Z,5.14
2023-05-17T04:23:37.686Z,5.12
2023-05-17T04:26:06.562Z,5.19
2023-05-17T04:28:40.211Z,5.17
2023-05-17T04:31:09.148Z,5.14
2023-05-17T04:33:38.140Z,5.13
2023-05-17T04:36:08.260Z,5.19
2023-05-17T04:38:37.916Z,5.18
2023-05-17T04:41:09.297Z,5.24
2023-05-17T04:43:40.299Z,5.29
2023-05-17T04:46:13.604Z,5.44
2023-05-17T04:48:41.814Z,5.43
2023-05-17T04:51:10.957Z,5.46
2023-05-17T04:53:38.882Z,5.54
2023-05-17T04:56:11.358Z,5.56
2023-05-17T04:58:41.301Z,5.56
2023-05-17T05:01:09.237Z,5.72
2023-05-17T05:03:37.922Z,5.77
2023-05-17T05:06:08.344Z,5.82
2023-05-17T05:08:37.607Z,5.98
2023-05-17T05:11:07.743Z,6.07
2023-05-17T05:13:38.423Z,6.24
2023-05-17T05:16:09.259Z,6.25
2023-05-17T05:18:38.221Z,6.36
2023-05-17T05:21:06.610Z,6.46
2023-05-17T05:23:34.786Z,6.61
2023-05-17T05:26:02.516Z,6.65
2023-05-17T05:28:30.319Z,6.71
2023-05-17T05:31:00.271Z,6.82
2023-05-17T05:33:34.199Z,6.88
2023-05-17T05:36:03.079Z,7.00
2023-05-17T05:38:31.519Z,7.07
2023-05-17T05:41:00.155Z,7.16
2023-05-17T05:43:28.072Z,7.36
2023-05-17T05:45:56.268Z,7.47
2023-05-17T05:48:24.045Z,7.60
2023-05-17T05:50:53.221Z,7.70
2023-05-17T05:53:20.926Z,7.90
2023-05-17T05:55:52.759Z,7.98
2023-05-17T05:58:21.386Z,8.17
2023-05-17T06:00:49.646Z,8.37
2023-05-17T06:03:17.363Z,8.50
2023-05-17T06:05:45.347Z,8.80
2023-05-17T06:08:14.426Z,8.81
2023-05-17T06:10:42.337Z,8.96
2023-05-17T06:13:10.025Z,9.16
2023-05-17T06:15:38.256Z,9.34
2023-05-17T06:18:06.315Z,9.52
2023-05-17T06:20:34.135Z,9.56
2023-05-17T06:23:01.920Z,9.84
2023-05-17T06:25:31.041Z,9.75
2023-05-17T06:27:58.887Z,9.38
2023-05-17T06:30:27.969Z,10.11
2023-05-17T06:32:56.271Z,10.20
2023-05-17T06:35:24.150Z,10.45
2023-05-17T06:37:51.848Z,10.49
2023-05-17T06:40:19.573Z,10.39
2023-05-17T06:42:48.877Z,10.42
2023-05-17T06:45:16.568Z,10.44
2023-05-17T06:47:44.566Z,10.36
2023-05-17T06:50:12.394Z,10.41
2023-05-17T06:52:40.679Z,10.31
2023-05-17T06:55:09.255Z,10.44
2023-05-17T06:57:38.046Z,10.64
2023-05-17T07:00:11.112Z,10.51
2023-05-17T07:02:39.210Z,10.75
2023-05-17T07:05:08.086Z,11.58
2023-05-17T07:07:36.184Z,12.34
2023-05-17T07:10:03.910Z,12.84
2023-05-17T07:12:31.706Z,13.55
2023-05-17T07:14:59.343Z,13.92
2023-05-17T07:17:28.545Z,13.69
2023-05-17T07:19:56.428Z,14.50
2023-05-17T07:22:24.337Z,14.51
2023-05-17T07:24:52.071Z,14.27
2023-05-17T07:27:19.901Z,13.75
2023-05-17T07:29:47.606Z,13.00
2023-05-17T07:32:16.266Z,12.87
2023-05-17T07:34:45.776Z,12.44
2023-05-17T07:37:13.844Z,12.89
2023-05-17T07:39:41.548Z,13.81
2023-05-17T07:42:09.360Z,13.57
2023-05-17T07:44:37.238Z,13.41
2023-05-17T07:47:05.487Z,13.20
2023-05-17T07:49:33.236Z,13.24
2023-05-17T07:52:03.946Z,13.80
2023-05-17T07:54:31.757Z,14.23
2023-05-17T07:57:00.042Z,14.45
2023-05-17T07:59:27.903Z,15.29
2023-05-17T08:01:55.963Z,14.84
2023-05-17T08:04:24.525Z,14.91
2023-05-17T08:06:52.313Z,15.11
2023-05-17T08:09:21.946Z,14.78
2023-05-17T08:11:49.700Z,14.45
2023-05-17T08:14:18.047Z,14.11
2023-05-17T08:16:47.247Z,13.99
2023-05-17T08:19:16.722Z,14.04
2023-05-17T08:21:46.242Z,14.13
2023-05-17T08:24:14.461Z,14.08
2023-05-17T08:26:43.524Z,13.93
2023-05-17T08:29:11.380Z,14.12
2023-05-17T08:31:39.043Z,14.04
2023-05-17T08:34:07.575Z,13.92
2023-05-17T08:36:35.539Z,14.07
2023-05-17T08:39:04.408Z,13.89
2023-05-17T08:41:32.735Z,13.84
2023-05-17T08:44:04.581Z,14.04
2023-05-17T08:46:33.701Z,14.43
2023-05-17T08:49:02.213Z,14.27
2023-05-17T08:51:30.144Z,14.01
2023-05-17T08:53:58.490Z,13.89
2023-05-17T08:56:28.237Z,13.98
2023-05-17T08:58:58.304Z,14.25
2023-05-17T09:01:29.915Z,14.89
2023-05-17T09:04:01.519Z,14.94
2023-05-17T09:06:31.025Z,14.37
2023-05-17T09:09:01.752Z,14.35
2023-05-17T09:11:32.760Z,14.05
2023-05-17T09:14:01.657Z,13.66
2023-05-17T09:16:31.614Z,13.75
2023-05-17T09:19:00.251Z,13.72
2023-05-17T09:21:28.968Z,14.01
2023-05-17T09:24:06.400Z,14.18
2023-05-17T09:26:40.166Z,14.39
2023-05-17T09:29:12.863Z,14.62
2023-05-17T09:31:43.417Z,14.52
2023-05-17T09:34:12.237Z,14.21
2023-05-17T09:36:44.172Z,14.66
2023-05-17T09:39:13.844Z,14.46
2023-05-17T09:41:43.461Z,14.54
2023-05-17T09:44:13.099Z,14.67
2023-05-17T09:46:45.733Z,14.63
2023-05-17T09:49:14.467Z,14.46
2023-05-17T09:51:43.849Z,14.39
2023-05-17T09:54:12.266Z,13.95
2023-05-17T09:56:40.378Z,14.53
2023-05-17T09:59:13.425Z,14.65
2023-05-17T10:01:44.966Z,14.12
2023-05-17T10:04:14.235Z,13.98
2023-05-17T10:06:50.744Z,13.79
2023-05-17T10:09:22.901Z,13.76
2023-05-17T10:11:53.288Z,13.56
2023-05-17T10:14:27.785Z,13.77
2023-05-17T10:16:57.869Z,13.67
2023-05-17T10:19:27.255Z,13.69
2023-05-17T10:21:58.692Z,13.78
2023-05-17T10:24:32.407Z,14.07
2023-05-17T10:27:01.010Z,14.22
2023-05-17T10:29:31.402Z,14.12
2023-05-17T10:32:04.684Z,14.34
2023-05-17T10:34:34.947Z,14.44
2023-05-17T10:37:04.107Z,14.63
2023-05-17T10:39:34.978Z,14.75
2023-05-17T10:42:14.269Z,14.28
2023-05-17T10:44:44.196Z,14.48
2023-05-17T10:47:16.368Z,15.01
2023-05-17T10:49:48.120Z,16.10
2023-05-17T10:52:18.047Z,16.37
2023-05-17T10:54:48.777Z,16.35
2023-05-17T10:57:36.090Z,15.97
2023-05-17T11:00:21.761Z,15.84
2023-05-17T11:02:51.538Z,15.71
2023-05-17T11:05:27.789Z,15.19
2023-05-17T11:08:14.189Z,15.06
2023-05-17T11:11:10.013Z,15.13
2023-05-17T11:13:46.249Z,15.64
2023-05-17T11:16:18.204Z,16.02
2023-05-17T11:18:52.379Z,15.97
2023-05-17T11:21:21.577Z,15.64
2023-05-17T11:23:55.479Z,15.71
2023-05-17T11:26:24.521Z,15.66
2023-05-17T11:29:02.042Z,15.57
2023-05-17T11:31:34.992Z,15.23
2023-05-17T11:34:08.540Z,15.52
2023-05-17T11:36:51.326Z,15.46
2023-05-17T11:39:21.566Z,15.53
2023-05-17T11:41:51.097Z,15.25
2023-05-17T11:44:25.495Z,15.22
2023-05-17T11:46:54.121Z,14.86
2023-05-17T11:49:34.073Z,15.49
2023-05-17T11:52:03.923Z,16.02
2023-05-17T11:54:32.135Z,16.39
2023-05-17T11:57:02.435Z,16.16
2023-05-17T11:59:30.219Z,16.16
2023-05-17T12:01:57.878Z,15.91
2023-05-17T12:04:28.462Z,16.42
2023-05-17T12:06:57.899Z,16.64
2023-05-17T12:09:26.545Z,16.99
2023-05-17T12:11:54.403Z,17.23
2023-05-17T12:14:22.353Z,16.67
2023-05-17T12:16:53.931Z,16.40
2023-05-17T12:19:25.259Z,16.31
2023-05-17T12:21:54.426Z,16.70
2023-05-17T12:24:22.145Z,16.78
2023-05-17T12:26:50.161Z,16.57
2023-05-17T12:29:22.754Z,16.02
2023-05-17T12:31:54.035Z,15.87
2023-05-17T12:34:22.919Z,15.97
2023-05-17T12:36:52.637Z,16.25
2023-05-17T12:39:24.151Z,17.23
2023-05-17T12:41:53.281Z,17.40
2023-05-17T12:44:21.597Z,17.20
2023-05-17T12:46:54.225Z,17.26
2023-05-17T12:49:23.043Z,17.03
2023-05-17T12:51:51.316Z,16.75
2023-05-17T12:54:29.157Z,16.75
2023-05-17T12:56:57.405Z,16.55
2023-05-17T12:59:26.213Z,16.18
2023-05-17T13:01:56.491Z,16.52
2023-05-17T13:04:31.957Z,17.24
2023-05-17T13:07:01.950Z,16.94
2023-05-17T13:09:32.666Z,17.10
2023-05-17T13:12:03.347Z,18.23
2023-05-17T13:14:35.183Z,18.39
2023-05-17T13:17:03.157Z,18.58
2023-05-17T13:19:31.070Z,17.65
2023-05-17T13:21:59.277Z,17.31
2023-05-17T13:24:28.017Z,17.23
2023-05-17T13:26:57.078Z,16.89
2023-05-17T13:29:35.723Z,16.18
2023-05-17T13:32:07.631Z,16.16
2023-05-17T13:34:35.480Z,16.91
2023-05-17T13:37:03.282Z,17.34
2023-05-17T13:39:31.244Z,16.90
2023-05-17T13:42:00.425Z,16.66
2023-05-17T13:44:29.764Z,16.34
2023-05-17T13:46:57.436Z,16.16
2023-05-17T13:49:25.477Z,16.20
2023-05-17T13:51:53.140Z,16.73
2023-05-17T13:54:23.744Z,16.99
2023-05-17T13:56:52.539Z,17.07
2023-05-17T13:59:21.534Z,17.17
2023-05-17T14:01:49.785Z,17.47
2023-05-17T14:04:17.490Z,17.82
2023-05-17T14:06:47.246Z,17.61
2023-05-17T14:09:16.452Z,18.18
2023-05-17T14:11:44.299Z,18.79
2023-05-17T14:14:12.056Z,18.63
2023-05-17T14:16:41.474Z,18.59
2023-05-17T14:19:09.275Z,18.27
2023-05-17T14:21:37.405Z,17.86
2023-05-17T14:24:05.344Z,17.39
2023-05-17T14:26:33.116Z,17.38
2023-05-17T14:29:00.940Z,17.27
2023-05-17T14:31:29.856Z,17.79
2023-05-17T14:34:00.199Z,17.92
2023-05-17T14:36:28.177Z,17.92
2023-05-17T14:38:55.939Z,17.87
2023-05-17T14:41:23.648Z,18.18
2023-05-17T14:43:51.612Z,18.25
2023-05-17T14:46:19.601Z,18.10
2023-05-17T14:48:47.606Z,17.84
2023-05-17T14:51:16.999Z,18.21
2023-05-17T14:53:44.756Z,18.32
2023-05-17T14:56:12.479Z,18.12
2023-05-17T14:58:40.889Z,18.02
2023-05-17T15:01:09.104Z,17.73
2023-05-17T15:03:37.214Z,17.66
2023-05-17T15:06:08.233Z,17.41
2023-05-17T15:08:39.945Z,17.25
2023-05-17T15:11:07.871Z,17.67
2023-05-17T15:13:35.572Z,18.02
2023-05-17T15:16:04.130Z,17.99
2023-05-17T15:18:32.147Z,18.14
2023-05-17T15:20:59.846Z,18.16
2023-05-17T15:23:27.805Z,17.99
2023-05-17T15:25:56.868Z,17.96
2023-05-17T15:28:24.591Z,17.97
2023-05-17T15:31:01.520Z,17.82
2023-05-17T15:33:31.053Z,17.90
2023-05-17T15:35:59.153Z,17.80
2023-05-17T15:38:27.569Z,17.83
2023-05-17T15:41:03.770Z,17.63
2023-05-17T15:43:32.289Z,17.80
2023-05-17T15:46:00.356Z,17.69
2023-05-17T15:48:29.199Z,17.42
2023-05-17T15:50:57.602Z,17.58
2023-05-17T15:53:25.809Z,17.77
2023-05-17T15:55:53.774Z,17.79
2023-05-17T15:58:24.712Z,17.77
2023-05-17T16:00:52.684Z,17.59
2023-05-17T16:03:20.355Z,17.92
2023-05-17T16:05:48.425Z,17.60
2023-05-17T16:08:16.373Z,17.52
2023-05-17T16:10:44.525Z,17.62
2023-05-17T16:13:12.204Z,17.54
2023-05-17T16:15:41.580Z,17.52
2023-05-17T16:18:10.581Z,17.73
2023-05-17T16:20:38.935Z,17.77
2023-05-17T16:23:07.229Z,17.89
2023-05-17T16:25:35.335Z,17.45
2023-05-17T16:28:03.201Z,17.63
2023-05-17T16:30:31.265Z,17.91
2023-05-17T16:33:00.375Z,18.52
2023-05-17T16:35:29.187Z,19.23
2023-05-17T16:37:56.965Z,20.39
2023-05-17T16:40:24.932Z,20.86
2023-05-17T16:42:52.618Z,21.50
2023-05-17T16:45:20.587Z,21.05
2023-05-17T16:47:48.308Z,21.52
2023-05-17T16:50:17.371Z,21.48
2023-05-17T16:52:45.589Z,21.82
2023-05-17T16:55:13.350Z,21.43
2023-05-17T16:57:42.430Z,21.94
2023-05-17T17:00:11.918Z,22.35
2023-05-17T17:02:39.830Z,21.85
2023-05-17T17:05:08.332Z,22.46
2023-05-17T17:07:37.762Z,21.62
2023-05-17T17:10:05.951Z,21.93
2023-05-17T17:12:33.910Z,21.80
2023-05-17T17:15:02.151Z,20.28
2023-05-17T17:17:30.594Z,18.68
2023-05-17T17:19:58.420Z,18.19
2023-05-17T17:22:26.438Z,17.17
2023-05-17T17:24:55.583Z,16.12
2023-05-17T17:27:23.322Z,15.81
2023-05-17T17:29:51.382Z,15.43
2023-05-17T17:32:19.222Z,15.10
2023-05-17T17:34:46.886Z,14.85
2023-05-17T17:37:14.884Z,14.77
2023-05-17T17:39:42.773Z,14.56
2023-05-17T17:42:12.108Z,14.44
2023-05-17T17:44:39.754Z,14.32
2023-05-17T17:47:08.452Z,14.26
2023-05-17T17:49:37.095Z,14.06
2023-05-17T17:52:05.735Z,14.02
2023-05-17T17:54:33.407Z,13.77
2023-05-17T17:57:02.663Z,13.65
2023-05-17T17:59:31.770Z,13.47
2023-05-17T18:02:00.502Z,13.34
2023-05-17T18:04:28.461Z,13.24
2023-05-17T18:06:56.581Z,13.09
2023-05-17T18:09:24.666Z,12.97
2023-05-17T18:11:52.392Z,12.93
2023-05-17T18:14:21.715Z,12.83
2023-05-17T18:16:50.777Z,12.71
2023-05-17T18:19:19.123Z,12.72
2023-05-17T18:21:46.967Z,12.70
2023-05-17T18:24:14.774Z,12.48
2023-05-17T18:26:42.497Z,12.26
2023-05-17T18:29:10.436Z,12.20
2023-05-17T18:31:38.221Z,12.18
2023-05-17T18:34:07.577Z,12.05
2023-05-17T18:36:35.288Z,11.97
2023-05-17T18:39:03.286Z,11.97
2023-05-17T18:41:31.016Z,11.82
2023-05-17T18:44:02.005Z,11.67
2023-05-17T18:46:30.448Z,11.61
2023-05-17T18:48:58.538Z,11.51
2023-05-17T18:51:28.575Z,11.45
2023-05-17T18:53:56.443Z,11.23
2023-05-17T18:56:25.117Z,11.24
2023-05-17T18:58:53.345Z,11.20
2023-05-17T19:01:21.318Z,11.03
2023-05-17T19:03:51.398Z,10.89
2023-05-17T19:06:19.493Z,10.78
2023-05-17T19:08:50.541Z,10.89
2023-05-17T19:11:18.513Z,10.92
2023-05-17T19:13:46.611Z,10.86
2023-05-17T19:16:15.522Z,10.77
2023-05-17T19:18:43.319Z,10.67
2023-05-17T19:21:11.397Z,10.54
2023-05-17T19:23:39.325Z,10.40
2023-05-17T19:26:08.665Z,10.37
2023-05-17T19:28:36.314Z,10.44
2023-05-17T19:31:05.143Z,10.39
2023-05-17T19:33:34.052Z,10.30
2023-05-17T19:36:02.289Z,10.21
2023-05-17T19:38:29.930Z,10.14
2023-05-17T19:40:57.630Z,10.06
2023-05-17T19:43:27.081Z,9.98
2023-05-17T19:45:54.897Z,9.99
2023-05-17T19:48:24.040Z,9.94
2023-05-17T19:50:53.257Z,9.34
2023-05-17T19:53:22.864Z,9.69
2023-05-17T19:55:50.863Z,9.74
2023-05-17T19:58:18.622Z,9.63
2023-05-17T20:00:48.195Z,9.60
2023-05-17T20:03:16.098Z,9.59
2023-05-17T20:05:44.192Z,9.58
2023-05-17T20:08:11.842Z,9.54
2023-05-17T20:10:39.903Z,9.46
2023-05-17T20:13:07.609Z,9.52
2023-05-17T20:15:35.518Z,9.44
2023-05-17T20:18:05.480Z,9.39
2023-05-17T20:20:33.260Z,9.35
2023-05-17T20:23:01.243Z,9.35
2023-05-17T20:25:28.991Z,9.31
2023-05-17T20:27:56.965Z,9.16
2023-05-17T20:30:24.658Z,9.40
2023-05-17T20:32:52.616Z,9.40
2023-05-17T20:35:21.935Z,9.40
2023-05-17T20:37:49.609Z,9.24
2023-05-17T20:40:17.527Z,9.25
2023-05-17T20:42:46.148Z,9.32
2023-05-17T20:45:17.672Z,9.30
2023-05-17T20:47:45.582Z,9.34
2023-05-17T20:50:14.106Z,9.31
2023-05-17T20:52:43.223Z,9.27
2023-05-17T20:55:11.301Z,9.35
2023-05-17T20:57:39.288Z,9.31
2023-05-17T21:00:09.569Z,9.34
2023-05-17T21:02:39.142Z,9.28
2023-05-17T21:05:09.038Z,9.21
2023-05-17T21:07:39.415Z,9.31
2023-05-17T21:10:10.072Z,9.27
2023-05-17T21:12:37.900Z,9.29
2023-05-17T21:15:16.610Z,9.36
2023-05-17T21:17:45.407Z,9.33
2023-05-17T21:20:14.079Z,9.20
2023-05-17T21:22:42.012Z,9.34
2023-05-17T21:25:11.561Z,9.37
2023-05-17T21:27:39.544Z,9.30
2023-05-17T21:30:08.510Z,8.88
2023-05-17T21:32:37.093Z,9.27
2023-05-17T21:35:05.220Z,9.27
2023-05-17T21:37:33.655Z,9.41
2023-05-17T21:40:01.323Z,9.48
2023-05-17T21:42:30.799Z,9.41
2023-05-17T21:44:58.740Z,9.28
2023-05-17T21:47:26.454Z,9.34
2023-05-17T21:49:54.670Z,9.33
2023-05-17T21:52:22.381Z,9.28
2023-05-17T21:54:50.321Z,9.20
2023-05-17T21:57:20.717Z,9.07
2023-05-17T21:59:50.180Z,9.04
2023-05-17T22:02:18.244Z,8.90
2023-05-17T22:04:46.262Z,8.93
2023-05-17T22:07:14.072Z,9.03
2023-05-17T22:09:42.029Z,8.92
2023-05-17T22:12:12.100Z,8.93
2023-05-17T22:14:43.478Z,8.97
2023-05-17T22:17:12.570Z,8.89
2023-05-17T22:19:41.614Z,8.70
2023-05-17T22:22:10.308Z,8.87
2023-05-17T22:24:38.512Z,8.93
2023-05-17T22:27:06.718Z,8.93
2023-05-17T22:29:34.697Z,9.00
2023-05-17T22:32:02.494Z,8.92
2023-05-17T22:34:31.977Z,8.98
2023-05-17T22:36:59.834Z,9.07
2023-05-17T22:39:27.815Z,9.27
2023-05-17T22:41:55.678Z,9.18
2023-05-17T22:44:23.680Z,9.30
2023-05-17T22:46:51.411Z,9.52
2023-05-17T22:49:20.475Z,9.42
2023-05-17T22:51:49.518Z,9.35
2023-05-17T22:54:17.346Z,9.46
2023-05-17T22:56:45.040Z,9.38
2023-05-17T22:59:13.000Z,9.31
2023-05-17T23:01:40.714Z,9.39
2023-05-17T23:04:08.855Z,9.45
2023-05-17T23:06:36.574Z,9.49
2023-05-17T23:09:06.267Z,9.52
2023-05-17T23:11:35.311Z,9.52
2023-05-17T23:14:03.229Z,9.38
2023-05-17T23:16:30.993Z,9.40
2023-05-17T23:18:59.996Z,9.40
2023-05-17T23:21:28.098Z,9.36
2023-05-17T23:23:56.290Z,9.33
2023-05-17T23:26:25.799Z,9.45
2023-05-17T23:28:53.658Z,9.50
2023-05-17T23:31:22.432Z,9.62
2023-05-17T23:33:50.171Z,9.57
2023-05-17T23:36:17.994Z,9.54
2023-05-17T23:38:45.699Z,9.55
2023-05-17T23:41:18.270Z,9.50
2023-05-17T23:43:47.634Z,9.52
2023-05-17T23:46:20.107Z,9.47
2023-05-17T23:48:50.491Z,9.55
2023-05-17T23:51:20.018Z,9.43
2023-05-17T23:53:49.130Z,8.78
2023-05-17T23:56:17.955Z,9.20
2023-05-17T23:58:47.426Z,9.17
